sensor_id;sensor_type;location;lat;lon;timestamp;P1;durP1;ratioP1;P2;durP2;ratioP2
76065;SDS011;64763;48.928;8.474;2023-02-01T00:00:03;6.10;;;2.88;;
76065;SDS011;64763;48.928;8.474;2023-02-01T00:02:29;4.45;;;2.60;;
76065;SDS011;64763;48.928;8.474;2023-02-01T00:04:54;6.72;;;3.50;;
76065;SDS011;64763;48.928;8.474;2023-02-01T00:07:20;4.85;;;2.72;;
76065;SDS011;64763;48.928;8.474;2023-02-01T00:09:45;6.38;;;2.80;;
76065;SDS011;64763;48.928;8.474;2023-02-01T00:12:10;3.90;;;2.55;;
76065;SDS011;64763;48.928;8.474;2023-02-01T00:14:36;4.43;;;2.70;;
76065;SDS011;64763;48.928;8.474;2023-02-01T00:17:05;4.25;;;2.72;;
76065;SDS011;64763;48.928;8.474;2023-02-01T00:19:31;4.90;;;2.33;;
76065;SDS011;64763;48.928;8.474;2023-02-01T00:21:57;4.20;;;2.42;;
76065;SDS011;64763;48.928;8.474;2023-02-01T00:24:22;3.58;;;2.47;;
76065;SDS011;64763;48.928;8.474;2023-02-01T00:26:47;6.40;;;2.53;;
76065;SDS011;64763;48.928;8.474;2023-02-01T00:29:14;5.32;;;2.55;;
76065;SDS011;64763;48.928;8.474;2023-02-01T00:31:41;4.03;;;2.42;;
76065;SDS011;64763;48.928;8.474;2023-02-01T00:34:08;2.88;;;2.00;;
76065;SDS011;64763;48.928;8.474;2023-02-01T00:36:38;3.78;;;2.20;;
76065;SDS011;64763;48.928;8.474;2023-02-01T00:39:03;4.15;;;2.13;;
76065;SDS011;64763;48.928;8.474;2023-02-01T00:41:31;3.90;;;1.85;;
76065;SDS011;64763;48.928;8.474;2023-02-01T00:43:57;3.10;;;1.73;;
76065;SDS011;64763;48.928;8.474;2023-02-01T00:46:22;3.03;;;1.77;;
76065;SDS011;64763;48.928;8.474;2023-02-01T00:48:48;5.13;;;1.88;;
76065;SDS011;64763;48.928;8.474;2023-02-01T00:51:15;3.40;;;1.95;;
76065;SDS011;64763;48.928;8.474;2023-02-01T00:53:42;3.05;;;1.83;;
76065;SDS011;64763;48.928;8.474;2023-02-01T00:56:07;4.53;;;1.90;;
76065;SDS011;64763;48.928;8.474;2023-02-01T00:58:33;4.63;;;1.83;;
76065;SDS011;64763;48.928;8.474;2023-02-01T01:03:36;3.53;;;1.73;;
76065;SDS011;64763;48.928;8.474;2023-02-01T01:06:08;3.97;;;1.90;;
76065;SDS011;64763;48.928;8.474;2023-02-01T01:08:36;2.63;;;1.77;;
76065;SDS011;64763;48.928;8.474;2023-02-01T01:11:06;3.60;;;1.70;;
76065;SDS011;64763;48.928;8.474;2023-02-01T01:13:38;3.35;;;2.00;;
76065;SDS011;64763;48.928;8.474;2023-02-01T01:16:04;3.70;;;1.75;;
76065;SDS011;64763;48.928;8.474;2023-02-01T01:18:31;3.40;;;1.98;;
76065;SDS011;64763;48.928;8.474;2023-02-01T01:20:57;3.20;;;1.98;;
76065;SDS011;64763;48.928;8.474;2023-02-01T01:23:23;4.32;;;2.28;;
76065;SDS011;64763;48.928;8.474;2023-02-01T01:25:48;3.47;;;2.00;;
76065;SDS011;64763;48.928;8.474;2023-02-01T01:28:14;3.95;;;2.28;;
76065;SDS011;64763;48.928;8.474;2023-02-01T01:30:39;5.18;;;2.10;;
76065;SDS011;64763;48.928;8.474;2023-02-01T01:33:04;3.17;;;1.90;;
76065;SDS011;64763;48.928;8.474;2023-02-01T01:35:30;3.20;;;1.95;;
76065;SDS011;64763;48.928;8.474;2023-02-01T01:37:56;5.97;;;2.08;;
76065;SDS011;64763;48.928;8.474;2023-02-01T01:40:22;3.78;;;2.20;;
76065;SDS011;64763;48.928;8.474;2023-02-01T01:42:47;3.08;;;1.85;;
76065;SDS011;64763;48.928;8.474;2023-02-01T01:45:20;3.20;;;2.13;;
76065;SDS011;64763;48.928;8.474;2023-02-01T01:47:57;3.65;;;2.25;;
76065;SDS011;64763;48.928;8.474;2023-02-01T01:50:27;3.53;;;1.90;;
76065;SDS011;64763;48.928;8.474;2023-02-01T01:52:54;4.10;;;1.95;;
76065;SDS011;64763;48.928;8.474;2023-02-01T01:55:21;2.83;;;1.90;;
76065;SDS011;64763;48.928;8.474;2023-02-01T01:57:54;3.22;;;2.30;;
76065;SDS011;64763;48.928;8.474;2023-02-01T02:00:22;3.22;;;1.70;;
76065;SDS011;64763;48.928;8.474;2023-02-01T02:02:48;3.03;;;1.98;;
76065;SDS011;64763;48.928;8.474;2023-02-01T02:05:16;3.83;;;2.10;;
76065;SDS011;64763;48.928;8.474;2023-02-01T02:07:43;3.40;;;1.92;;
76065;SDS011;64763;48.928;8.474;2023-02-01T02:10:12;5.18;;;2.03;;
76065;SDS011;64763;48.928;8.474;2023-02-01T02:12:39;2.45;;;1.50;;
76065;SDS011;64763;48.928;8.474;2023-02-01T02:15:05;2.78;;;1.73;;
76065;SDS011;64763;48.928;8.474;2023-02-01T02:23:22;2.80;;;1.88;;
76065;SDS011;64763;48.928;8.474;2023-02-01T02:34:33;2.45;;;1.50;;
76065;SDS011;64763;48.928;8.474;2023-02-01T02:45:17;2.92;;;1.88;;
76065;SDS011;64763;48.928;8.474;2023-02-01T02:50:37;2.77;;;1.83;;
76065;SDS011;64763;48.928;8.474;2023-02-01T02:54:00;2.40;;;1.55;;
76065;SDS011;64763;48.928;8.474;2023-02-01T02:56:56;2.33;;;1.60;;
76065;SDS011;64763;48.928;8.474;2023-02-01T02:59:41;2.90;;;2.03;;
76065;SDS011;64763;48.928;8.474;2023-02-01T03:02:26;2.80;;;1.70;;
76065;SDS011;64763;48.928;8.474;2023-02-01T03:05:11;2.97;;;1.67;;
76065;SDS011;64763;48.928;8.474;2023-02-01T03:10:10;2.47;;;1.58;;
76065;SDS011;64763;48.928;8.474;2023-02-01T03:12:43;4.13;;;1.80;;
76065;SDS011;64763;48.928;8.474;2023-02-01T03:15:22;2.60;;;1.65;;
76065;SDS011;64763;48.928;8.474;2023-02-01T03:17:52;3.40;;;1.73;;
76065;SDS011;64763;48.928;8.474;2023-02-01T03:20:19;4.47;;;1.95;;
76065;SDS011;64763;48.928;8.474;2023-02-01T03:22:44;3.63;;;2.00;;
76065;SDS011;64763;48.928;8.474;2023-02-01T03:25:15;3.35;;;2.25;;
76065;SDS011;64763;48.928;8.474;2023-02-01T03:27:48;2.05;;;1.50;;
76065;SDS011;64763;48.928;8.474;2023-02-01T03:30:18;3.13;;;1.90;;
76065;SDS011;64763;48.928;8.474;2023-02-01T03:32:53;3.00;;;1.90;;
76065;SDS011;64763;48.928;8.474;2023-02-01T03:35:30;3.35;;;1.85;;
76065;SDS011;64763;48.928;8.474;2023-02-01T03:38:04;3.30;;;1.80;;
76065;SDS011;64763;48.928;8.474;2023-02-01T03:40:36;4.57;;;2.10;;
76065;SDS011;64763;48.928;8.474;2023-02-01T03:43:04;2.55;;;1.70;;
76065;SDS011;64763;48.928;8.474;2023-02-01T03:45:34;2.70;;;1.50;;
76065;SDS011;64763;48.928;8.474;2023-02-01T03:48:04;3.25;;;1.77;;
76065;SDS011;64763;48.928;8.474;2023-02-01T03:50:30;2.75;;;1.70;;
76065;SDS011;64763;48.928;8.474;2023-02-01T03:55:51;2.40;;;1.58;;
76065;SDS011;64763;48.928;8.474;2023-02-01T03:58:18;2.40;;;1.58;;
76065;SDS011;64763;48.928;8.474;2023-02-01T04:00:46;2.75;;;1.52;;
76065;SDS011;64763;48.928;8.474;2023-02-01T04:03:16;2.70;;;1.50;;
76065;SDS011;64763;48.928;8.474;2023-02-01T04:05:42;1.90;;;1.33;;
76065;SDS011;64763;48.928;8.474;2023-02-01T04:08:07;2.40;;;1.70;;
76065;SDS011;64763;48.928;8.474;2023-02-01T04:10:32;3.20;;;1.23;;
76065;SDS011;64763;48.928;8.474;2023-02-01T04:12:58;3.55;;;1.63;;
76065;SDS011;64763;48.928;8.474;2023-02-01T04:15:23;2.67;;;1.30;;
76065;SDS011;64763;48.928;8.474;2023-02-01T04:17:49;2.97;;;1.70;;
76065;SDS011;64763;48.928;8.474;2023-02-01T04:20:14;3.75;;;1.67;;
76065;SDS011;64763;48.928;8.474;2023-02-01T04:22:40;2.63;;;1.60;;
76065;SDS011;64763;48.928;8.474;2023-02-01T04:25:05;2.35;;;1.60;;
76065;SDS011;64763;48.928;8.474;2023-02-01T04:27:31;3.55;;;1.80;;
76065;SDS011;64763;48.928;8.474;2023-02-01T04:29:56;2.10;;;1.45;;
76065;SDS011;64763;48.928;8.474;2023-02-01T04:32:22;3.40;;;1.77;;
76065;SDS011;64763;48.928;8.474;2023-02-01T04:34:47;4.50;;;1.80;;
76065;SDS011;64763;48.928;8.474;2023-02-01T04:37:12;4.20;;;1.90;;
76065;SDS011;64763;48.928;8.474;2023-02-01T04:39:38;3.20;;;1.75;;
76065;SDS011;64763;48.928;8.474;2023-02-01T04:42:03;3.60;;;1.77;;
76065;SDS011;64763;48.928;8.474;2023-02-01T04:44:29;3.80;;;1.80;;
76065;SDS011;64763;48.928;8.474;2023-02-01T04:46:54;4.03;;;1.77;;
76065;SDS011;64763;48.928;8.474;2023-02-01T04:49:20;2.35;;;1.60;;
76065;SDS011;64763;48.928;8.474;2023-02-01T04:51:46;2.55;;;1.52;;
76065;SDS011;64763;48.928;8.474;2023-02-01T04:54:11;3.17;;;1.70;;
76065;SDS011;64763;48.928;8.474;2023-02-01T04:56:37;2.50;;;1.40;;
76065;SDS011;64763;48.928;8.474;2023-02-01T04:59:02;3.30;;;1.73;;
76065;SDS011;64763;48.928;8.474;2023-02-01T05:01:28;4.10;;;1.70;;
76065;SDS011;64763;48.928;8.474;2023-02-01T05:03:53;3.15;;;1.70;;
76065;SDS011;64763;48.928;8.474;2023-02-01T05:06:19;3.05;;;1.67;;
76065;SDS011;64763;48.928;8.474;2023-02-01T05:08:45;2.35;;;1.40;;
76065;SDS011;64763;48.928;8.474;2023-02-01T05:11:10;2.83;;;1.70;;
76065;SDS011;64763;48.928;8.474;2023-02-01T05:13:54;2.78;;;1.48;;
76065;SDS011;64763;48.928;8.474;2023-02-01T05:16:19;3.08;;;1.88;;
76065;SDS011;64763;48.928;8.474;2023-02-01T05:18:45;3.28;;;2.15;;
76065;SDS011;64763;48.928;8.474;2023-02-01T05:21:10;3.65;;;2.50;;
76065;SDS011;64763;48.928;8.474;2023-02-01T05:23:36;3.88;;;2.40;;
76065;SDS011;64763;48.928;8.474;2023-02-01T05:26:21;4.43;;;2.20;;
76065;SDS011;64763;48.928;8.474;2023-02-01T05:28:46;3.45;;;1.95;;
76065;SDS011;64763;48.928;8.474;2023-02-01T05:31:12;3.58;;;2.10;;
76065;SDS011;64763;48.928;8.474;2023-02-01T05:33:37;4.47;;;2.85;;
76065;SDS011;64763;48.928;8.474;2023-02-01T05:36:02;3.95;;;2.22;;
76065;SDS011;64763;48.928;8.474;2023-02-01T05:38:28;4.18;;;2.60;;
76065;SDS011;64763;48.928;8.474;2023-02-01T05:40:54;4.43;;;2.50;;
76065;SDS011;64763;48.928;8.474;2023-02-01T05:43:20;4.40;;;2.65;;
76065;SDS011;64763;48.928;8.474;2023-02-01T05:45:45;7.13;;;3.17;;
76065;SDS011;64763;48.928;8.474;2023-02-01T05:48:11;4.80;;;2.83;;
76065;SDS011;64763;48.928;8.474;2023-02-01T05:50:36;4.50;;;2.70;;
76065;SDS011;64763;48.928;8.474;2023-02-01T05:53:01;5.97;;;3.20;;
76065;SDS011;64763;48.928;8.474;2023-02-01T05:55:26;6.47;;;3.35;;
76065;SDS011;64763;48.928;8.474;2023-02-01T05:57:52;5.93;;;3.45;;
76065;SDS011;64763;48.928;8.474;2023-02-01T06:00:17;8.55;;;3.15;;
76065;SDS011;64763;48.928;8.474;2023-02-01T06:02:43;4.68;;;2.85;;
76065;SDS011;64763;48.928;8.474;2023-02-01T06:05:08;8.52;;;3.80;;
76065;SDS011;64763;48.928;8.474;2023-02-01T06:07:34;7.70;;;3.28;;
76065;SDS011;64763;48.928;8.474;2023-02-01T06:09:59;5.72;;;3.40;;
76065;SDS011;64763;48.928;8.474;2023-02-01T06:12:24;4.82;;;2.97;;
76065;SDS011;64763;48.928;8.474;2023-02-01T06:14:53;5.80;;;3.35;;
76065;SDS011;64763;48.928;8.474;2023-02-01T06:17:18;7.60;;;4.05;;
76065;SDS011;64763;48.928;8.474;2023-02-01T06:19:43;6.60;;;3.40;;
76065;SDS011;64763;48.928;8.474;2023-02-01T06:22:09;7.07;;;4.28;;
76065;SDS011;64763;48.928;8.474;2023-02-01T06:24:35;8.82;;;3.88;;
76065;SDS011;64763;48.928;8.474;2023-02-01T06:27:00;9.68;;;4.88;;
76065;SDS011;64763;48.928;8.474;2023-02-01T06:29:25;6.90;;;3.70;;
76065;SDS011;64763;48.928;8.474;2023-02-01T06:31:51;9.55;;;4.18;;
76065;SDS011;64763;48.928;8.474;2023-02-01T06:34:17;6.72;;;4.40;;
76065;SDS011;64763;48.928;8.474;2023-02-01T06:36:42;5.93;;;3.53;;
76065;SDS011;64763;48.928;8.474;2023-02-01T06:39:08;5.43;;;3.60;;
76065;SDS011;64763;48.928;8.474;2023-02-01T06:41:33;9.93;;;4.55;;
76065;SDS011;64763;48.928;8.474;2023-02-01T06:43:59;7.93;;;3.78;;
76065;SDS011;64763;48.928;8.474;2023-02-01T06:46:25;7.45;;;4.07;;
76065;SDS011;64763;48.928;8.474;2023-02-01T06:48:50;8.93;;;4.28;;
76065;SDS011;64763;48.928;8.474;2023-02-01T06:51:20;7.53;;;3.65;;
76065;SDS011;64763;48.928;8.474;2023-02-01T06:53:50;7.53;;;3.38;;
76065;SDS011;64763;48.928;8.474;2023-02-01T06:56:15;7.65;;;3.85;;
76065;SDS011;64763;48.928;8.474;2023-02-01T06:58:41;6.05;;;3.47;;
76065;SDS011;64763;48.928;8.474;2023-02-01T07:01:07;7.50;;;4.15;;
76065;SDS011;64763;48.928;8.474;2023-02-01T07:03:34;5.13;;;3.22;;
76065;SDS011;64763;48.928;8.474;2023-02-01T07:05:59;9.25;;;4.07;;
76065;SDS011;64763;48.928;8.474;2023-02-01T07:08:28;10.45;;;4.07;;
76065;SDS011;64763;48.928;8.474;2023-02-01T07:10:54;6.63;;;3.45;;
76065;SDS011;64763;48.928;8.474;2023-02-01T07:13:20;10.15;;;4.13;;
76065;SDS011;64763;48.928;8.474;2023-02-01T07:15:45;5.72;;;3.67;;
76065;SDS011;64763;48.928;8.474;2023-02-01T07:18:14;7.40;;;3.80;;
76065;SDS011;64763;48.928;8.474;2023-02-01T07:20:40;5.13;;;2.95;;
76065;SDS011;64763;48.928;8.474;2023-02-01T07:23:06;6.50;;;3.40;;
76065;SDS011;64763;48.928;8.474;2023-02-01T07:25:35;6.80;;;3.25;;
76065;SDS011;64763;48.928;8.474;2023-02-01T07:28:01;7.28;;;3.03;;
76065;SDS011;64763;48.928;8.474;2023-02-01T07:30:26;5.63;;;3.53;;
76065;SDS011;64763;48.928;8.474;2023-02-01T07:32:52;7.85;;;3.65;;
76065;SDS011;64763;48.928;8.474;2023-02-01T07:35:17;7.05;;;3.63;;
76065;SDS011;64763;48.928;8.474;2023-02-01T07:37:42;6.45;;;3.83;;
76065;SDS011;64763;48.928;8.474;2023-02-01T07:40:08;6.38;;;3.53;;
76065;SDS011;64763;48.928;8.474;2023-02-01T07:42:34;8.60;;;3.83;;
76065;SDS011;64763;48.928;8.474;2023-02-01T07:44:59;6.25;;;3.50;;
76065;SDS011;64763;48.928;8.474;2023-02-01T07:47:25;6.72;;;3.65;;
76065;SDS011;64763;48.928;8.474;2023-02-01T07:49:51;6.50;;;3.80;;
76065;SDS011;64763;48.928;8.474;2023-02-01T07:52:16;5.13;;;3.03;;
76065;SDS011;64763;48.928;8.474;2023-02-01T07:54:41;9.48;;;3.67;;
76065;SDS011;64763;48.928;8.474;2023-02-01T07:57:08;5.45;;;3.15;;
76065;SDS011;64763;48.928;8.474;2023-02-01T07:59:33;7.93;;;3.22;;
76065;SDS011;64763;48.928;8.474;2023-02-01T08:02:00;6.18;;;3.00;;
76065;SDS011;64763;48.928;8.474;2023-02-01T08:04:25;7.22;;;2.58;;
76065;SDS011;64763;48.928;8.474;2023-02-01T08:06:51;4.30;;;2.65;;
76065;SDS011;64763;48.928;8.474;2023-02-01T08:09:16;8.07;;;3.08;;
76065;SDS011;64763;48.928;8.474;2023-02-01T08:11:41;5.75;;;2.92;;
76065;SDS011;64763;48.928;8.474;2023-02-01T08:14:07;5.97;;;3.03;;
76065;SDS011;64763;48.928;8.474;2023-02-01T08:16:32;5.63;;;2.60;;
76065;SDS011;64763;48.928;8.474;2023-02-01T08:19:00;3.42;;;2.60;;
76065;SDS011;64763;48.928;8.474;2023-02-01T08:21:26;5.50;;;2.63;;
76065;SDS011;64763;48.928;8.474;2023-02-01T08:24:01;8.70;;;3.00;;
76065;SDS011;64763;48.928;8.474;2023-02-01T08:26:26;7.50;;;3.45;;
76065;SDS011;64763;48.928;8.474;2023-02-01T08:28:53;7.78;;;3.45;;
76065;SDS011;64763;48.928;8.474;2023-02-01T08:31:20;6.80;;;2.92;;
76065;SDS011;64763;48.928;8.474;2023-02-01T08:33:52;7.63;;;3.25;;
76065;SDS011;64763;48.928;8.474;2023-02-01T08:36:19;7.43;;;3.22;;
76065;SDS011;64763;48.928;8.474;2023-02-01T08:38:45;5.32;;;3.20;;
76065;SDS011;64763;48.928;8.474;2023-02-01T08:41:17;7.85;;;2.67;;
76065;SDS011;64763;48.928;8.474;2023-02-01T08:43:44;6.70;;;2.92;;
76065;SDS011;64763;48.928;8.474;2023-02-01T08:46:10;7.75;;;3.08;;
76065;SDS011;64763;48.928;8.474;2023-02-01T08:48:36;8.63;;;2.90;;
76065;SDS011;64763;48.928;8.474;2023-02-01T08:51:03;5.65;;;3.17;;
76065;SDS011;64763;48.928;8.474;2023-02-01T08:53:29;7.82;;;3.67;;
76065;SDS011;64763;48.928;8.474;2023-02-01T08:55:55;6.85;;;3.30;;
76065;SDS011;64763;48.928;8.474;2023-02-01T08:58:20;5.68;;;2.60;;
76065;SDS011;64763;48.928;8.474;2023-02-01T09:00:46;8.35;;;2.92;;
76065;SDS011;64763;48.928;8.474;2023-02-01T09:03:13;6.35;;;3.00;;
76065;SDS011;64763;48.928;8.474;2023-02-01T09:05:38;10.40;;;3.15;;
76065;SDS011;64763;48.928;8.474;2023-02-01T09:08:05;8.52;;;3.17;;
76065;SDS011;64763;48.928;8.474;2023-02-01T09:10:30;5.75;;;2.38;;
76065;SDS011;64763;48.928;8.474;2023-02-01T09:12:56;5.45;;;2.80;;
76065;SDS011;64763;48.928;8.474;2023-02-01T09:15:22;5.50;;;2.90;;
76065;SDS011;64763;48.928;8.474;2023-02-01T09:17:47;6.50;;;2.95;;
76065;SDS011;64763;48.928;8.474;2023-02-01T09:20:13;11.40;;;5.03;;
76065;SDS011;64763;48.928;8.474;2023-02-01T09:22:39;5.00;;;2.65;;
76065;SDS011;64763;48.928;8.474;2023-02-01T09:25:05;7.97;;;2.20;;
76065;SDS011;64763;48.928;8.474;2023-02-01T09:27:30;8.10;;;2.70;;
76065;SDS011;64763;48.928;8.474;2023-02-01T09:29:56;5.03;;;2.63;;
76065;SDS011;64763;48.928;8.474;2023-02-01T09:32:22;6.00;;;2.95;;
76065;SDS011;64763;48.928;8.474;2023-02-01T09:34:48;8.60;;;2.65;;
76065;SDS011;64763;48.928;8.474;2023-02-01T09:37:14;8.90;;;2.95;;
76065;SDS011;64763;48.928;8.474;2023-02-01T09:39:40;3.70;;;2.38;;
76065;SDS011;64763;48.928;8.474;2023-02-01T09:44:59;7.15;;;2.63;;
76065;SDS011;64763;48.928;8.474;2023-02-01T09:47:48;7.20;;;2.58;;
76065;SDS011;64763;48.928;8.474;2023-02-01T09:50:42;7.00;;;2.92;;
76065;SDS011;64763;48.928;8.474;2023-02-01T09:55:48;7.75;;;2.75;;
76065;SDS011;64763;48.928;8.474;2023-02-01T09:58:20;7.68;;;2.78;;
76065;SDS011;64763;48.928;8.474;2023-02-01T10:00:52;8.05;;;2.85;;
76065;SDS011;64763;48.928;8.474;2023-02-01T10:03:21;5.07;;;2.75;;
76065;SDS011;64763;48.928;8.474;2023-02-01T10:06:01;8.80;;;2.70;;
76065;SDS011;64763;48.928;8.474;2023-02-01T10:11:17;6.43;;;2.13;;
76065;SDS011;64763;48.928;8.474;2023-02-01T10:14:05;10.88;;;3.15;;
76065;SDS011;64763;48.928;8.474;2023-02-01T10:16:51;7.47;;;2.47;;
76065;SDS011;64763;48.928;8.474;2023-02-01T10:22:09;9.05;;;2.97;;
76065;SDS011;64763;48.928;8.474;2023-02-01T10:24:39;8.02;;;2.67;;
76065;SDS011;64763;48.928;8.474;2023-02-01T10:27:22;9.80;;;2.72;;
76065;SDS011;64763;48.928;8.474;2023-02-01T10:29:51;8.27;;;2.70;;
76065;SDS011;64763;48.928;8.474;2023-02-01T10:32:30;8.70;;;2.40;;
76065;SDS011;64763;48.928;8.474;2023-02-01T10:34:58;10.75;;;3.03;;
76065;SDS011;64763;48.928;8.474;2023-02-01T10:37:29;7.18;;;2.75;;
76065;SDS011;64763;48.928;8.474;2023-02-01T10:42:27;7.95;;;2.65;;
76065;SDS011;64763;48.928;8.474;2023-02-01T10:44:54;6.70;;;2.50;;
76065;SDS011;64763;48.928;8.474;2023-02-01T10:47:21;8.82;;;3.17;;
76065;SDS011;64763;48.928;8.474;2023-02-01T10:49:49;12.13;;;2.78;;
76065;SDS011;64763;48.928;8.474;2023-02-01T10:52:31;8.32;;;2.38;;
76065;SDS011;64763;48.928;8.474;2023-02-01T10:57:56;5.80;;;2.60;;
76065;SDS011;64763;48.928;8.474;2023-02-01T11:00:26;8.48;;;2.72;;
76065;SDS011;64763;48.928;8.474;2023-02-01T11:02:52;6.63;;;2.63;;
76065;SDS011;64763;48.928;8.474;2023-02-01T11:05:18;4.82;;;2.20;;
76065;SDS011;64763;48.928;8.474;2023-02-01T11:07:54;7.88;;;2.72;;
76065;SDS011;64763;48.928;8.474;2023-02-01T11:10:39;7.93;;;2.58;;
76065;SDS011;64763;48.928;8.474;2023-02-01T11:13:11;9.45;;;3.08;;
76065;SDS011;64763;48.928;8.474;2023-02-01T11:15:39;6.75;;;2.40;;
76065;SDS011;64763;48.928;8.474;2023-02-01T11:18:16;9.30;;;3.13;;
76065;SDS011;64763;48.928;8.474;2023-02-01T11:20:43;7.18;;;2.80;;
76065;SDS011;64763;48.928;8.474;2023-02-01T11:23:17;6.32;;;2.60;;
76065;SDS011;64763;48.928;8.474;2023-02-01T11:25:51;7.32;;;2.75;;
76065;SDS011;64763;48.928;8.474;2023-02-01T11:28:20;7.70;;;3.13;;
76065;SDS011;64763;48.928;8.474;2023-02-01T11:30:47;6.65;;;2.47;;
76065;SDS011;64763;48.928;8.474;2023-02-01T11:33:17;12.57;;;3.42;;
76065;SDS011;64763;48.928;8.474;2023-02-01T11:35:44;17.73;;;5.30;;
76065;SDS011;64763;48.928;8.474;2023-02-01T11:38:11;13.40;;;4.50;;
76065;SDS011;64763;48.928;8.474;2023-02-01T11:40:47;10.30;;;3.53;;
76065;SDS011;64763;48.928;8.474;2023-02-01T11:43:23;6.35;;;2.83;;
76065;SDS011;64763;48.928;8.474;2023-02-01T11:45:53;3.75;;;2.10;;
76065;SDS011;64763;48.928;8.474;2023-02-01T11:48:26;9.25;;;3.13;;
76065;SDS011;64763;48.928;8.474;2023-02-01T11:50:57;11.00;;;3.22;;
76065;SDS011;64763;48.928;8.474;2023-02-01T11:53:36;8.80;;;2.90;;
76065;SDS011;64763;48.928;8.474;2023-02-01T11:56:17;5.97;;;2.65;;
76065;SDS011;64763;48.928;8.474;2023-02-01T12:04:18;8.98;;;2.50;;
76065;SDS011;64763;48.928;8.474;2023-02-01T12:06:50;9.10;;;2.90;;
76065;SDS011;64763;48.928;8.474;2023-02-01T12:14:41;8.68;;;2.53;;
76065;SDS011;64763;48.928;8.474;2023-02-01T12:17:42;5.00;;;2.17;;
76065;SDS011;64763;48.928;8.474;2023-02-01T12:31:29;7.57;;;2.78;;
76065;SDS011;64763;48.928;8.474;2023-02-01T12:34:33;7.85;;;2.70;;
76065;SDS011;64763;48.928;8.474;2023-02-01T12:37:15;7.72;;;3.33;;
76065;SDS011;64763;48.928;8.474;2023-02-01T12:40:00;7.57;;;2.75;;
76065;SDS011;64763;48.928;8.474;2023-02-01T12:42:32;12.00;;;3.30;;
76065;SDS011;64763;48.928;8.474;2023-02-01T12:45:02;10.18;;;3.20;;
76065;SDS011;64763;48.928;8.474;2023-02-01T12:47:56;11.40;;;3.00;;
76065;SDS011;64763;48.928;8.474;2023-02-01T12:50:32;8.10;;;2.92;;
76065;SDS011;64763;48.928;8.474;2023-02-01T12:53:42;6.93;;;2.78;;
76065;SDS011;64763;48.928;8.474;2023-02-01T12:56:11;9.90;;;3.58;;
76065;SDS011;64763;48.928;8.474;2023-02-01T12:58:45;7.18;;;2.85;;
76065;SDS011;64763;48.928;8.474;2023-02-01T13:01:14;6.28;;;2.33;;
76065;SDS011;64763;48.928;8.474;2023-02-01T13:06:31;12.20;;;3.70;;
76065;SDS011;64763;48.928;8.474;2023-02-01T13:11:55;8.27;;;2.72;;
76065;SDS011;64763;48.928;8.474;2023-02-01T13:14:33;5.40;;;2.42;;
76065;SDS011;64763;48.928;8.474;2023-02-01T13:17:05;10.45;;;2.92;;
76065;SDS011;64763;48.928;8.474;2023-02-01T13:22:29;10.45;;;3.38;;
76065;SDS011;64763;48.928;8.474;2023-02-01T13:24:58;7.05;;;2.72;;
76065;SDS011;64763;48.928;8.474;2023-02-01T13:27:28;12.00;;;3.40;;
76065;SDS011;64763;48.928;8.474;2023-02-01T13:33:08;10.82;;;3.15;;
76065;SDS011;64763;48.928;8.474;2023-02-01T13:41:41;7.20;;;3.10;;
76065;SDS011;64763;48.928;8.474;2023-02-01T13:44:16;8.88;;;3.63;;
76065;SDS011;64763;48.928;8.474;2023-02-01T13:47:10;11.95;;;3.58;;
76065;SDS011;64763;48.928;8.474;2023-02-01T13:49:41;5.18;;;3.08;;
76065;SDS011;64763;48.928;8.474;2023-02-01T13:52:16;6.68;;;3.45;;
76065;SDS011;64763;48.928;8.474;2023-02-01T13:54:48;11.20;;;3.30;;
76065;SDS011;64763;48.928;8.474;2023-02-01T13:57:36;6.45;;;2.80;;
76065;SDS011;64763;48.928;8.474;2023-02-01T14:00:45;8.30;;;3.10;;
76065;SDS011;64763;48.928;8.474;2023-02-01T14:15:38;8.63;;;2.87;;
76065;SDS011;64763;48.928;8.474;2023-02-01T14:18:31;10.27;;;2.67;;
76065;SDS011;64763;48.928;8.474;2023-02-01T14:21:27;8.60;;;2.75;;
76065;SDS011;64763;48.928;8.474;2023-02-01T14:26:21;10.27;;;2.87;;
76065;SDS011;64763;48.928;8.474;2023-02-01T14:31:41;11.75;;;2.63;;
76065;SDS011;64763;48.928;8.474;2023-02-01T14:34:14;13.15;;;2.90;;
76065;SDS011;64763;48.928;8.474;2023-02-01T14:36:46;8.25;;;2.80;;
76065;SDS011;64763;48.928;8.474;2023-02-01T14:39:21;18.38;;;3.65;;
76065;SDS011;64763;48.928;8.474;2023-02-01T14:41:52;10.68;;;2.70;;
76065;SDS011;64763;48.928;8.474;2023-02-01T14:44:26;8.82;;;2.97;;
76065;SDS011;64763;48.928;8.474;2023-02-01T14:49:37;9.75;;;2.78;;
76065;SDS011;64763;48.928;8.474;2023-02-01T14:52:09;8.27;;;3.17;;
76065;SDS011;64763;48.928;8.474;2023-02-01T14:54:38;13.20;;;2.95;;
76065;SDS011;64763;48.928;8.474;2023-02-01T14:57:04;9.13;;;2.60;;
76065;SDS011;64763;48.928;8.474;2023-02-01T14:59:30;7.07;;;2.92;;
76065;SDS011;64763;48.928;8.474;2023-02-01T15:01:58;8.05;;;2.92;;
76065;SDS011;64763;48.928;8.474;2023-02-01T15:04:26;10.85;;;3.03;;
76065;SDS011;64763;48.928;8.474;2023-02-01T15:07:03;7.65;;;2.53;;
76065;SDS011;64763;48.928;8.474;2023-02-01T15:09:32;7.68;;;2.95;;
76065;SDS011;64763;48.928;8.474;2023-02-01T15:12:03;14.05;;;3.03;;
76065;SDS011;64763;48.928;8.474;2023-02-01T15:14:40;8.63;;;3.53;;
76065;SDS011;64763;48.928;8.474;2023-02-01T15:17:21;12.98;;;3.08;;
76065;SDS011;64763;48.928;8.474;2023-02-01T15:20:01;7.78;;;3.30;;
76065;SDS011;64763;48.928;8.474;2023-02-01T15:22:28;9.43;;;2.22;;
76065;SDS011;64763;48.928;8.474;2023-02-01T15:24:58;7.90;;;2.80;;
76065;SDS011;64763;48.928;8.474;2023-02-01T15:27:24;8.60;;;2.97;;
76065;SDS011;64763;48.928;8.474;2023-02-01T15:29:50;11.20;;;2.70;;
76065;SDS011;64763;48.928;8.474;2023-02-01T15:32:29;6.97;;;2.63;;
76065;SDS011;64763;48.928;8.474;2023-02-01T15:34:59;14.57;;;3.60;;
76065;SDS011;64763;48.928;8.474;2023-02-01T15:37:25;11.57;;;3.67;;
76065;SDS011;64763;48.928;8.474;2023-02-01T15:42:41;9.90;;;2.83;;
76065;SDS011;64763;48.928;8.474;2023-02-01T15:45:18;9.00;;;2.75;;
76065;SDS011;64763;48.928;8.474;2023-02-01T15:47:46;9.07;;;2.83;;
76065;SDS011;64763;48.928;8.474;2023-02-01T15:50:15;7.45;;;2.65;;
76065;SDS011;64763;48.928;8.474;2023-02-01T15:52:41;7.80;;;2.30;;
76065;SDS011;64763;48.928;8.474;2023-02-01T15:55:20;11.80;;;3.55;;
76065;SDS011;64763;48.928;8.474;2023-02-01T15:57:49;8.05;;;2.85;;
76065;SDS011;64763;48.928;8.474;2023-02-01T16:00:22;8.80;;;2.80;;
76065;SDS011;64763;48.928;8.474;2023-02-01T16:02:52;8.80;;;2.60;;
76065;SDS011;64763;48.928;8.474;2023-02-01T16:05:33;8.15;;;3.00;;
76065;SDS011;64763;48.928;8.474;2023-02-01T16:10:39;4.78;;;2.20;;
76065;SDS011;64763;48.928;8.474;2023-02-01T16:13:06;13.63;;;3.17;;
76065;SDS011;64763;48.928;8.474;2023-02-01T16:15:32;9.88;;;2.90;;
76065;SDS011;64763;48.928;8.474;2023-02-01T16:17:57;7.35;;;2.70;;
76065;SDS011;64763;48.928;8.474;2023-02-01T16:20:22;10.40;;;3.55;;
76065;SDS011;64763;48.928;8.474;2023-02-01T16:22:48;7.63;;;2.50;;
76065;SDS011;64763;48.928;8.474;2023-02-01T16:25:13;7.53;;;2.15;;
76065;SDS011;64763;48.928;8.474;2023-02-01T16:27:39;7.65;;;2.70;;
76065;SDS011;64763;48.928;8.474;2023-02-01T16:30:04;6.28;;;3.05;;
76065;SDS011;64763;48.928;8.474;2023-02-01T16:32:30;9.93;;;3.13;;
76065;SDS011;64763;48.928;8.474;2023-02-01T16:34:56;8.95;;;2.58;;
76065;SDS011;64763;48.928;8.474;2023-02-01T16:37:22;11.60;;;2.88;;
76065;SDS011;64763;48.928;8.474;2023-02-01T16:39:48;6.55;;;2.70;;
76065;SDS011;64763;48.928;8.474;2023-02-01T16:42:15;6.15;;;2.92;;
76065;SDS011;64763;48.928;8.474;2023-02-01T16:44:40;6.75;;;2.60;;
76065;SDS011;64763;48.928;8.474;2023-02-01T16:49:58;7.43;;;2.60;;
76065;SDS011;64763;48.928;8.474;2023-02-01T16:52:24;10.90;;;2.60;;
76065;SDS011;64763;48.928;8.474;2023-02-01T16:54:50;9.77;;;2.53;;
76065;SDS011;64763;48.928;8.474;2023-02-01T16:57:17;8.60;;;2.50;;